Hattiesburg Bobby L Chain Municipal Airport Hattiesburg US
ICAO: KHBG
IATA: HBG
Category: Medium
Scheduled Services: No

Elevation: 151 ft
TransAlt. 18000 ft.

Airport Communications:
ASOS:135.425
HOUSTON CNTR:126.8
CTAF/UNICOM:122.8

KHBG Zoom In..

If you have problems with the map follow the link
https://www.worldairports.se/pages/airport.php?
ICAO=KHBG

Runways:

(A) RW 13 length 6094 ft width 150 ft
---- / hdg 132

(B) RW 31 length 6094 ft width 150 ft
---- / hdg 312

Location; KHBG
Day. 22 / Time. 16.53 Zulu
* Altimeter: 30.11
* Temperature: 24° c. 75.2°f.
* Wind from: 170° Speed 09 kn.
Dewpoint: 20° c.
Visibility: 10 Statute Miles.
Clouds: Scattered 2100 ft.
Clouds: Scattered 3100 ft.
Clouds: Broken 9000 ft.

KHBG 221653Z AUTO 17009KT 10SM SCT021 SCT031 BKN090 24/20 A3011 RMK AO2 SLP194 T02440200


Wind From 170°
Speed 09 kn.

 
 
jpsmedia.com for Web Design worldairports.se 2019   terms of use